Strona główna
METAR-TAF:

METAR-TAF

Lotnisko :

Faith Municipal Airport

Faith, Dakota Południowa, Stany Zjednoczone

Szerokość geograficzna: 45-01-55N, Długość geograficzna: 102-01-09W, wysokość: 787 m

Aktualna obserwacja pogody

Raport powstał 25 minut temu, godzina 23:56 UTC
Wiatr 7 kt od północ
Temperatura 28°C
Wilgotność 48%
Ciśnienie 1014 hPa

METAR: KD07 152356Z AUTO 36007KT 28/16 A2993 RMK AO1 SLP119 T02780156 10306 20250 55010

czas: 18:21 (00:21 UTC)


TAF: brakujący

Obserwacja i prognoza pogody dla ponad 4000 lotnisk (raport METAR i TAF).

Dostępne stacje oznaczono żółtymi i czerwonymi punktami na mapie.

Najedź kursorem aby zobaczyć nazwę stacji.

Kliknij aby zobaczyć obserwacje i prognozy pogody.

Aby zmienić mapę: kliknij na zielony przycisk z czarnym krzyżykiem, aby powiększyć; na zielony przycisk z myślnikiem, aby pomniejszyć; na zielone strzałki, aby przejść do map sąsiednich.


METAR-TAF: